Flight Track Log - Related Links

Times and Time Zones

All times are in EST time to prevent confusion due to time zone crossing. See the ANA1188 flight status page for this flight to view local times or setup timezone preferences in your user account.

Time Position Orientation Groundspeed Altitude Reporting Facility
EST Latitude Longitude Course Direction KTS MPH feet Rate Location/Type
Wed 03:52:00 AM 25.4924 122.1519 52° Northeast  Level Estimated
Wed 03:53:00 AM 25.5767 122.2724 52° Northeast  Level Estimated
Wed 03:54:00 AM 25.6609 122.3931 52° Northeast  Level Estimated
Wed 03:55:00 AM 25.7450 122.5140 52° Northeast  Level Estimated
Wed 03:56:00 AM 25.8290 122.6351 52° Northeast  Level Estimated
Wed 03:57:00 AM 25.9129 122.7563 52° Northeast  Level Estimated
Wed 03:58:00 AM 25.9967 122.8777 52° Northeast  Level Estimated
Wed 03:59:00 AM 26.0804 122.9993 53° Northeast  Level Estimated
Wed 04:00:00 AM 26.1640 123.1210 53° Northeast  Level Estimated
Wed 04:01:00 AM 26.2475 123.2430 53° Northeast  Level Estimated
Wed 04:02:00 AM 26.3309 123.3651 53° Northeast  Level Estimated
Wed 04:03:00 AM 26.4141 123.4873 53° Northeast  Level Estimated
Wed 04:04:00 AM 26.4973 123.6098 53° Northeast  Level Estimated
Wed 04:05:00 AM 26.5804 123.7324 53° Northeast  Level Estimated
Wed 04:06:00 AM 26.6633 123.8552 53° Northeast  Level Estimated
Wed 04:07:00 AM 26.7462 123.9782 53° Northeast  Level Estimated
Wed 04:08:00 AM 26.8290 124.1014 53° Northeast  Level Estimated
Wed 04:09:00 AM 26.9116 124.2247 53° Northeast  Level Estimated
Wed 04:10:00 AM 26.9942 124.3482 53° Northeast  Level Estimated
Wed 04:11:00 AM 27.0766 124.4719 53° Northeast  Level Estimated
Wed 04:12:00 AM 27.1589 124.5958 53° Northeast  Level Estimated
Wed 04:13:00 AM 27.2411 124.7199 53° Northeast  Level Estimated
Wed 04:14:00 AM 27.3233 124.8441 53° Northeast  Level Estimated
Wed 04:15:00 AM 27.4053 124.9686 53° Northeast  Level Estimated
Wed 04:16:00 AM 27.4872 125.0932 53° Northeast  Level Estimated
Wed 04:17:00 AM 27.5689 125.2180 54° Northeast  Level Estimated
Wed 04:18:00 AM 27.6506 125.3430 54° Northeast  Level Estimated
Wed 04:19:00 AM 27.7321 125.4682 54° Northeast  Level Estimated
Wed 04:20:00 AM 27.8136 125.5936 54° Northeast  Level Estimated
Wed 04:21:00 AM 27.8949 125.7191 54° Northeast  Level Estimated
Wed 04:22:00 AM 27.9761 125.8448 54° Northeast  Level Estimated
Wed 04:23:00 AM 28.0572 125.9708 54° Northeast  Level Estimated
Wed 04:24:00 AM 28.1382 126.0969 54° Northeast  Level Estimated
Wed 04:25:00 AM 28.2191 126.2232 54° Northeast  Level Estimated
Wed 04:26:00 AM 28.2998 126.3497 54° Northeast  Level Estimated
Wed 04:27:00 AM 28.3805 126.4764 54° Northeast  Level Estimated
Wed 04:28:00 AM 28.4610 126.6033 54° Northeast  Level Estimated
Wed 04:29:00 AM 28.5414 126.7304 54° Northeast  Level Estimated
Wed 04:30:00 AM 28.6217 126.8577 54° Northeast  Level Estimated
Wed 04:31:00 AM 28.7018 126.9851 54° Northeast  Level Estimated
Wed 04:32:00 AM 28.7819 127.1128 54° Northeast  Level Estimated
Wed 04:33:00 AM 28.8618 127.2407 54° Northeast  Level Estimated
Wed 04:34:00 AM 28.9416 127.3687 55° Northeast  Level Estimated
Wed 04:35:00 AM 29.0213 127.4970 55° Northeast  Level Estimated
Wed 04:36:00 AM 29.1008 127.6255 55° Northeast  Level Estimated
Wed 04:37:00 AM 29.1803 127.7541 55° Northeast  Level Estimated
Wed 04:38:00 AM 29.2596 127.8829 55° Northeast  Level Estimated
Wed 04:39:00 AM 29.3388 128.0120 55° Northeast  Level Estimated
Wed 04:40:00 AM 29.4178 128.1413 55° Northeast  Level Estimated
Wed 04:41:00 AM 29.4968 128.2707 55° Northeast  Level Estimated
Wed 04:42:00 AM 29.5756 128.4004 55° Northeast  Level Estimated
Wed 04:43:00 AM 29.6543 128.5302 55° Northeast  Level Estimated
Wed 04:44:00 AM 29.7328 128.6603 55° Northeast  Level Estimated
Wed 04:45:00 AM 29.8113 128.7905 55° Northeast  Level Estimated
Wed 04:46:00 AM 29.8896 128.9210 55° Northeast  Level Estimated
Wed 04:47:00 AM 29.9677 129.0517 55° Northeast  Level Estimated
Wed 04:48:00 AM 30.0458 129.1826 55° Northeast  Level Estimated
Wed 04:49:00 AM 30.1237 129.3137 55° Northeast  Level Estimated
Wed 04:50:00 AM 30.2015 129.4450 56° Northeast  Level Estimated
Wed 04:51:00 AM 30.2792 129.5765 56° Northeast  Level Estimated
Wed 04:52:00 AM 30.3567 129.7082 56° Northeast  Level Estimated
Wed 04:53:00 AM 30.4341 129.8401 56° Northeast  Level Estimated
Wed 04:54:00 AM 30.5113 129.9722 56° Northeast  Level Estimated
Wed 04:55:00 AM 30.5885 130.1046 56° Northeast  Level Estimated
Wed 04:56:00 AM 30.6654 130.2371 56° Northeast  Level Estimated
Wed 04:57:00 AM 30.7423 130.3699 56° Northeast  Level Estimated
Wed 04:58:00 AM 30.8190 130.5028 56° Northeast  Level Estimated
Wed 04:59:00 AM 30.8956 130.6360 56° Northeast  Level Estimated
Wed 05:00:00 AM 30.9721 130.7694 56° Northeast  Level Estimated
Wed 05:01:00 AM 31.0484 130.9030 56° Northeast  Level Estimated
Wed 05:02:00 AM 31.1245 131.0368 56° Northeast  Level Estimated
Wed 05:03:00 AM 31.2006 131.1709 56° Northeast  Level Estimated
Wed 05:04:00 AM 31.2765 131.3051 56° Northeast  Level Estimated
Wed 05:05:00 AM 31.3522 131.4396 57° Northeast  Level Estimated
Wed 05:06:00 AM 31.4279 131.5743 57° Northeast  Level Estimated
Wed 05:07:00 AM 31.5033 131.7092 57° Northeast  Level Estimated
Wed 05:08:00 AM 31.5787 131.8443 57° Northeast  Level Estimated
Wed 05:09:00 AM 31.6539 131.9797 57° Northeast  Level Estimated
Wed 05:10:00 AM 31.7289 132.1152 57° Northeast  Level Estimated
Wed 05:11:00 AM 31.8038 132.2510 57° Northeast  Level Estimated
Wed 05:12:00 AM 31.8786 132.3870 57° Northeast  Level Estimated
Wed 05:13:00 AM 31.9532 132.5232 57° Northeast  Level Estimated
Wed 05:14:00 AM 32.0276 132.6597 57° Northeast  Level Estimated
Wed 05:15:00 AM 32.1020 132.7963 57° Northeast  Level Estimated
Wed 05:16:00 AM 32.1762 132.9332 57° Northeast  Level Estimated
Wed 05:17:00 AM 32.2502 133.0703 57° Northeast  Level Estimated
Wed 05:18:00 AM 32.3241 133.2077 57° Northeast  Level Estimated
Wed 05:19:00 AM 32.3978 133.3452 58° Northeast  Level Estimated
Wed 05:20:00 AM 32.4714 133.4830 58° Northeast  Level Estimated
Wed 05:21:00 AM 32.5448 133.6210 58° Northeast  Level Estimated
Wed 05:22:00 AM 32.6181 133.7592 58° Northeast  Level Estimated
Wed 05:23:00 AM 32.6912 133.8977 58° Northeast  Level Estimated
Wed 05:24:00 AM 32.7642 134.0364 58° Northeast  Level Estimated
Wed 05:25:00 AM 32.8370 134.1753 58° Northeast  Level Estimated
Wed 05:26:00 AM 32.9097 134.3144 58° Northeast  Level Estimated
Wed 05:27:00 AM 32.9822 134.4538 58° Northeast  Level Estimated
Wed 05:28:00 AM 33.0546 134.5934 58° Northeast  Level Estimated
Wed 05:29:00 AM 33.1268 134.7332 58° Northeast  Level Estimated
Wed 05:30:00 AM 33.1988 134.8733 58° Northeast  Level Estimated
Wed 05:31:00 AM 33.2707 135.0136 58° Northeast  Level Estimated
Wed 05:32:00 AM 33.3424 135.1541 59° Northeast  Level Estimated
Wed 05:33:00 AM 33.4140 135.2948 59° Northeast  Level Estimated
Wed 05:34:00 AM 33.4854 135.4358 59° Northeast  Level Estimated
Wed 05:35:00 AM 33.5567 135.5770 59° Northeast  Level Estimated
Wed 05:36:00 AM 33.6278 135.7185 59° Northeast  Level Estimated
Wed 05:37:00 AM 33.6987 135.8602 59° Northeast  Level Estimated
Wed 05:38:00 AM 33.7695 136.0021 59° Northeast  Level Estimated
Wed 05:39:00 AM 33.8401 136.1442 59° Northeast  Level Estimated
Wed 05:40:00 AM 33.9105 136.2866 59° Northeast  Level Estimated
Wed 05:41:00 AM 33.9808 136.4292 59° Northeast  Level Estimated
Wed 05:42:00 AM 34.0509 136.5721 59° Northeast  Level Estimated
Wed 05:43:00 AM 34.1209 136.7152 59° Northeast  Level Estimated
Wed 05:44:00 AM 34.1907 136.8585 59° Northeast  Level Estimated
Wed 05:45:00 AM 34.2603 137.0020 60° Northeast  Level Estimated
Wed 05:46:00 AM 34.3297 137.1458 60° Northeast  Level Estimated
Wed 05:47:00 AM 34.3990 137.2899 60° Northeast  Level Estimated
Wed 05:48:00 AM 34.4681 137.4342 60° Northeast  Level Estimated
Wed 05:49:00 AM 34.5370 137.5787 60° Northeast  Level Estimated
Wed 05:50:00 AM 34.6058 137.7234 60° Northeast  Level Estimated
Wed 05:51:00 AM 34.6744 137.8685 60° Northeast  Level Estimated
Wed 05:52:00 AM 34.7429 138.0137 60° Northeast  Level Estimated
Wed 05:53:00 AM 34.8111 138.1592 60° Northeast  Level Estimated
Wed 05:54:00 AM 34.8792 138.3049 60° Northeast  Level Estimated
Wed 05:55:00 AM 34.9471 138.4509 60° Northeast  Level Estimated
Wed 05:56:00 AM 35.0148 138.5970 60° Northeast  Level Estimated
Wed 05:57:00 AM 35.0824 138.7435 61° Northeast  Level Estimated
Wed 05:58:00 AM 35.1498 138.8902 61° Northeast  Level Estimated
Wed 05:59:00 AM 35.2170 139.0371 61° Northeast  Level Estimated
Wed 06:00:00 AM 35.2840 139.1843 61° Northeast  Level Estimated
Wed 06:01:00 AM 35.3509 139.3317 61° Northeast  Level Estimated
Wed 06:02:00 AM 35.4175 139.4793 61° Northeast  Level Estimated
Wed 06:03:00 AM 35.4840 139.6272 61° Northeast  Level Estimated
Wed 06:04:00 AM 35.5503 139.7754 61° Northeast  Level Estimated
Wed 06:05:00 AM 35.5523 139.7797 61° Northeast  Level Estimated
Wed 06:06:00 AM 35.5523 139.7797 122° Southeast  Level Estimated
Wed 06:07:00 AM 35.5523 139.7797 122° Southeast  Level Estimated
Wed 06:08:00 AM 35.5523 139.7797 122° Southeast  Level Estimated
Wed 06:09:00 AM 35.5523 139.7797 122° Southeast  Level Estimated
Wed 06:10:00 AM 35.5523 139.7797 122° Southeast  Level Estimated
Wed 06:11:00 AM 35.5523 139.7797 122° Southeast  Level Estimated
Wed 06:12:00 AM 35.5523 139.7797 122° Southeast  Level Estimated
Wed 06:13:00 AM 35.5523 139.7797 122° Southeast  Level Estimated
Wed 06:14:00 AM 35.5523 139.7797 122° Southeast  Level Estimated

Login

Don't have an account? Register now (free) for customized features, flight alerts, and more!